sensor_id;sensor_type;location;lat;lon;timestamp;P1;durP1;ratioP1;P2;durP2;ratioP2
29030;SDS011;16122;50.236;11.734;2024-02-14T00:00:34;1.10;;;1.00;;
29030;SDS011;16122;50.236;11.734;2024-02-14T00:03:00;1.20;;;1.10;;
29030;SDS011;16122;50.236;11.734;2024-02-14T00:05:27;1.07;;;0.97;;
29030;SDS011;16122;50.236;11.734;2024-02-14T00:07:54;0.90;;;0.90;;
29030;SDS011;16122;50.236;11.734;2024-02-14T00:10:22;1.30;;;1.20;;
29030;SDS011;16122;50.236;11.734;2024-02-14T00:12:48;1.00;;;1.00;;
29030;SDS011;16122;50.236;11.734;2024-02-14T00:15:16;1.43;;;1.33;;
29030;SDS011;16122;50.236;11.734;2024-02-14T00:17:42;1.80;;;1.70;;
29030;SDS011;16122;50.236;11.734;2024-02-14T00:20:09;1.00;;;1.00;;
29030;SDS011;16122;50.236;11.734;2024-02-14T00:22:37;1.57;;;1.47;;
29030;SDS011;16122;50.236;11.734;2024-02-14T00:25:04;1.37;;;1.27;;
29030;SDS011;16122;50.236;11.734;2024-02-14T00:27:30;1.17;;;1.10;;
29030;SDS011;16122;50.236;11.734;2024-02-14T00:29:56;1.37;;;1.07;;
29030;SDS011;16122;50.236;11.734;2024-02-14T00:32:22;2.60;;;1.07;;
29030;SDS011;16122;50.236;11.734;2024-02-14T00:34:47;1.00;;;0.90;;
29030;SDS011;16122;50.236;11.734;2024-02-14T00:37:15;1.30;;;1.20;;
29030;SDS011;16122;50.236;11.734;2024-02-14T00:39:41;1.30;;;1.10;;
29030;SDS011;16122;50.236;11.734;2024-02-14T00:42:07;1.53;;;1.30;;
29030;SDS011;16122;50.236;11.734;2024-02-14T00:44:32;1.60;;;1.00;;
29030;SDS011;16122;50.236;11.734;2024-02-14T00:46:58;1.63;;;1.30;;
29030;SDS011;16122;50.236;11.734;2024-02-14T00:49:25;1.40;;;1.10;;
29030;SDS011;16122;50.236;11.734;2024-02-14T00:51:51;1.73;;;1.20;;
29030;SDS011;16122;50.236;11.734;2024-02-14T00:54:17;1.10;;;1.00;;
29030;SDS011;16122;50.236;11.734;2024-02-14T00:56:42;1.20;;;1.10;;
29030;SDS011;16122;50.236;11.734;2024-02-14T00:59:08;1.30;;;1.20;;
29030;SDS011;16122;50.236;11.734;2024-02-14T01:01:34;0.90;;;0.90;;
29030;SDS011;16122;50.236;11.734;2024-02-14T01:04:00;0.87;;;0.83;;
29030;SDS011;16122;50.236;11.734;2024-02-14T01:06:26;1.47;;;1.37;;
29030;SDS011;16122;50.236;11.734;2024-02-14T01:08:52;1.07;;;0.97;;
29030;SDS011;16122;50.236;11.734;2024-02-14T01:11:18;1.10;;;1.00;;
29030;SDS011;16122;50.236;11.734;2024-02-14T01:13:44;1.40;;;1.30;;
29030;SDS011;16122;50.236;11.734;2024-02-14T01:16:10;1.10;;;1.00;;
29030;SDS011;16122;50.236;11.734;2024-02-14T01:18:36;1.83;;;1.20;;
29030;SDS011;16122;50.236;11.734;2024-02-14T01:21:02;1.00;;;0.90;;
29030;SDS011;16122;50.236;11.734;2024-02-14T01:23:28;1.30;;;1.20;;
29030;SDS011;16122;50.236;11.734;2024-02-14T01:25:54;1.60;;;1.00;;
29030;SDS011;16122;50.236;11.734;2024-02-14T01:28:22;1.17;;;1.00;;
29030;SDS011;16122;50.236;11.734;2024-02-14T01:30:47;1.30;;;1.20;;
29030;SDS011;16122;50.236;11.734;2024-02-14T01:33:13;1.10;;;1.00;;
29030;SDS011;16122;50.236;11.734;2024-02-14T01:35:41;1.20;;;0.90;;
29030;SDS011;16122;50.236;11.734;2024-02-14T01:38:08;1.30;;;1.00;;
29030;SDS011;16122;50.236;11.734;2024-02-14T01:40:33;1.13;;;0.90;;
29030;SDS011;16122;50.236;11.734;2024-02-14T01:42:59;2.13;;;1.27;;
29030;SDS011;16122;50.236;11.734;2024-02-14T01:45:26;0.80;;;0.80;;
29030;SDS011;16122;50.236;11.734;2024-02-14T01:47:52;1.73;;;0.90;;
29030;SDS011;16122;50.236;11.734;2024-02-14T01:50:20;0.90;;;0.90;;
29030;SDS011;16122;50.236;11.734;2024-02-14T01:52:54;1.20;;;1.10;;
29030;SDS011;16122;50.236;11.734;2024-02-14T01:55:21;1.23;;;0.97;;
29030;SDS011;16122;50.236;11.734;2024-02-14T01:57:49;1.33;;;1.23;;
29030;SDS011;16122;50.236;11.734;2024-02-14T02:00:15;1.10;;;1.00;;
29030;SDS011;16122;50.236;11.734;2024-02-14T02:02:43;2.37;;;0.90;;
29030;SDS011;16122;50.236;11.734;2024-02-14T02:05:13;1.20;;;1.10;;
29030;SDS011;16122;50.236;11.734;2024-02-14T02:07:39;0.90;;;0.80;;
29030;SDS011;16122;50.236;11.734;2024-02-14T02:10:10;1.00;;;0.90;;
29030;SDS011;16122;50.236;11.734;2024-02-14T02:12:37;1.13;;;1.03;;
29030;SDS011;16122;50.236;11.734;2024-02-14T02:15:05;1.10;;;1.00;;
29030;SDS011;16122;50.236;11.734;2024-02-14T02:17:31;1.20;;;1.10;;
29030;SDS011;16122;50.236;11.734;2024-02-14T02:19:59;3.17;;;1.00;;
29030;SDS011;16122;50.236;11.734;2024-02-14T02:22:26;1.20;;;1.10;;
29030;SDS011;16122;50.236;11.734;2024-02-14T02:24:53;1.10;;;0.80;;
29030;SDS011;16122;50.236;11.734;2024-02-14T02:27:19;1.10;;;1.00;;
29030;SDS011;16122;50.236;11.734;2024-02-14T02:29:45;0.83;;;0.83;;
29030;SDS011;16122;50.236;11.734;2024-02-14T02:32:12;1.00;;;0.90;;
29030;SDS011;16122;50.236;11.734;2024-02-14T02:34:38;0.90;;;0.90;;
29030;SDS011;16122;50.236;11.734;2024-02-14T02:37:05;0.90;;;0.90;;
29030;SDS011;16122;50.236;11.734;2024-02-14T02:39:34;1.10;;;1.00;;
29030;SDS011;16122;50.236;11.734;2024-02-14T02:42:02;1.10;;;0.90;;
29030;SDS011;16122;50.236;11.734;2024-02-14T02:44:28;1.10;;;1.07;;
29030;SDS011;16122;50.236;11.734;2024-02-14T02:46:54;1.40;;;1.30;;
29030;SDS011;16122;50.236;11.734;2024-02-14T02:49:21;1.47;;;1.17;;
29030;SDS011;16122;50.236;11.734;2024-02-14T02:51:47;1.33;;;0.80;;
29030;SDS011;16122;50.236;11.734;2024-02-14T02:54:13;0.80;;;0.80;;
29030;SDS011;16122;50.236;11.734;2024-02-14T02:56:39;1.43;;;0.73;;
29030;SDS011;16122;50.236;11.734;2024-02-14T02:59:06;1.53;;;1.00;;
29030;SDS011;16122;50.236;11.734;2024-02-14T03:01:36;1.30;;;1.00;;
29030;SDS011;16122;50.236;11.734;2024-02-14T03:04:02;1.27;;;1.17;;
29030;SDS011;16122;50.236;11.734;2024-02-14T03:06:28;1.10;;;1.00;;
29030;SDS011;16122;50.236;11.734;2024-02-14T03:08:53;1.50;;;1.00;;
29030;SDS011;16122;50.236;11.734;2024-02-14T03:11:21;1.10;;;0.90;;
29030;SDS011;16122;50.236;11.734;2024-02-14T03:13:47;1.20;;;0.90;;
29030;SDS011;16122;50.236;11.734;2024-02-14T03:16:14;1.10;;;1.00;;
29030;SDS011;16122;50.236;11.734;2024-02-14T03:18:42;1.20;;;1.10;;
29030;SDS011;16122;50.236;11.734;2024-02-14T03:21:08;1.03;;;0.93;;
29030;SDS011;16122;50.236;11.734;2024-02-14T03:23:34;1.10;;;1.00;;
29030;SDS011;16122;50.236;11.734;2024-02-14T03:26:00;1.37;;;0.83;;
29030;SDS011;16122;50.236;11.734;2024-02-14T03:28:26;1.10;;;1.00;;
29030;SDS011;16122;50.236;11.734;2024-02-14T03:30:52;1.83;;;1.10;;
29030;SDS011;16122;50.236;11.734;2024-02-14T03:33:18;1.37;;;1.10;;
29030;SDS011;16122;50.236;11.734;2024-02-14T03:35:44;1.40;;;1.03;;
29030;SDS011;16122;50.236;11.734;2024-02-14T03:38:10;0.90;;;0.90;;
29030;SDS011;16122;50.236;11.734;2024-02-14T03:40:36;1.30;;;1.00;;
29030;SDS011;16122;50.236;11.734;2024-02-14T03:43:03;0.97;;;0.90;;
29030;SDS011;16122;50.236;11.734;2024-02-14T03:45:30;0.80;;;0.80;;
29030;SDS011;16122;50.236;11.734;2024-02-14T03:47:56;1.17;;;0.90;;
29030;SDS011;16122;50.236;11.734;2024-02-14T03:50:22;1.17;;;1.07;;
29030;SDS011;16122;50.236;11.734;2024-02-14T03:52:49;1.17;;;1.00;;
29030;SDS011;16122;50.236;11.734;2024-02-14T03:55:15;0.90;;;0.80;;
29030;SDS011;16122;50.236;11.734;2024-02-14T03:57:43;1.30;;;1.20;;
29030;SDS011;16122;50.236;11.734;2024-02-14T04:00:10;0.80;;;0.80;;
29030;SDS011;16122;50.236;11.734;2024-02-14T04:02:39;1.13;;;0.90;;
29030;SDS011;16122;50.236;11.734;2024-02-14T04:05:05;0.80;;;0.80;;
29030;SDS011;16122;50.236;11.734;2024-02-14T04:07:32;0.73;;;0.73;;
29030;SDS011;16122;50.236;11.734;2024-02-14T04:09:59;1.20;;;1.10;;
29030;SDS011;16122;50.236;11.734;2024-02-14T04:12:25;0.80;;;0.80;;
29030;SDS011;16122;50.236;11.734;2024-02-14T04:14:51;1.03;;;0.93;;
29030;SDS011;16122;50.236;11.734;2024-02-14T04:17:16;1.07;;;0.90;;
29030;SDS011;16122;50.236;11.734;2024-02-14T04:19:42;1.03;;;1.00;;
29030;SDS011;16122;50.236;11.734;2024-02-14T04:22:08;1.10;;;1.00;;
29030;SDS011;16122;50.236;11.734;2024-02-14T04:24:34;0.80;;;0.80;;
29030;SDS011;16122;50.236;11.734;2024-02-14T04:27:00;1.00;;;0.90;;
29030;SDS011;16122;50.236;11.734;2024-02-14T04:29:29;1.50;;;1.13;;
29030;SDS011;16122;50.236;11.734;2024-02-14T04:31:58;1.60;;;1.00;;
29030;SDS011;16122;50.236;11.734;2024-02-14T04:34:25;1.10;;;0.80;;
29030;SDS011;16122;50.236;11.734;2024-02-14T04:36:51;1.00;;;0.90;;
29030;SDS011;16122;50.236;11.734;2024-02-14T04:39:17;1.17;;;1.00;;
29030;SDS011;16122;50.236;11.734;2024-02-14T04:41:43;1.73;;;0.90;;
29030;SDS011;16122;50.236;11.734;2024-02-14T04:44:09;1.43;;;1.00;;
29030;SDS011;16122;50.236;11.734;2024-02-14T04:46:34;1.10;;;1.00;;
29030;SDS011;16122;50.236;11.734;2024-02-14T04:49:04;1.33;;;1.23;;
29030;SDS011;16122;50.236;11.734;2024-02-14T04:51:30;0.90;;;0.90;;
29030;SDS011;16122;50.236;11.734;2024-02-14T04:53:56;1.03;;;0.80;;
29030;SDS011;16122;50.236;11.734;2024-02-14T04:56:26;1.03;;;0.93;;
29030;SDS011;16122;50.236;11.734;2024-02-14T04:58:52;1.93;;;0.90;;
29030;SDS011;16122;50.236;11.734;2024-02-14T05:01:18;0.90;;;0.90;;
29030;SDS011;16122;50.236;11.734;2024-02-14T05:03:44;0.73;;;0.73;;
29030;SDS011;16122;50.236;11.734;2024-02-14T05:06:10;0.80;;;0.80;;
29030;SDS011;16122;50.236;11.734;2024-02-14T05:08:36;0.73;;;0.73;;
29030;SDS011;16122;50.236;11.734;2024-02-14T05:11:02;0.70;;;0.70;;
29030;SDS011;16122;50.236;11.734;2024-02-14T05:13:29;0.80;;;0.80;;
29030;SDS011;16122;50.236;11.734;2024-02-14T05:15:55;0.80;;;0.80;;
29030;SDS011;16122;50.236;11.734;2024-02-14T05:18:21;1.50;;;1.10;;
29030;SDS011;16122;50.236;11.734;2024-02-14T05:20:47;1.07;;;0.80;;
29030;SDS011;16122;50.236;11.734;2024-02-14T05:23:13;1.77;;;0.90;;
29030;SDS011;16122;50.236;11.734;2024-02-14T05:25:39;1.37;;;0.80;;
29030;SDS011;16122;50.236;11.734;2024-02-14T05:28:05;1.70;;;0.90;;
29030;SDS011;16122;50.236;11.734;2024-02-14T05:30:30;1.10;;;0.90;;
29030;SDS011;16122;50.236;11.734;2024-02-14T05:32:57;1.30;;;0.97;;
29030;SDS011;16122;50.236;11.734;2024-02-14T05:35:22;4.30;;;1.00;;
29030;SDS011;16122;50.236;11.734;2024-02-14T05:37:49;2.10;;;0.80;;
29030;SDS011;16122;50.236;11.734;2024-02-14T05:40:17;1.60;;;1.00;;
29030;SDS011;16122;50.236;11.734;2024-02-14T05:42:43;2.67;;;1.07;;
29030;SDS011;16122;50.236;11.734;2024-02-14T05:45:09;2.07;;;1.10;;
29030;SDS011;16122;50.236;11.734;2024-02-14T05:47:35;0.97;;;0.87;;
29030;SDS011;16122;50.236;11.734;2024-02-14T05:50:01;2.73;;;1.20;;
29030;SDS011;16122;50.236;11.734;2024-02-14T05:52:26;1.03;;;0.80;;
29030;SDS011;16122;50.236;11.734;2024-02-14T05:54:52;1.83;;;1.00;;
29030;SDS011;16122;50.236;11.734;2024-02-14T05:57:19;1.20;;;0.90;;
29030;SDS011;16122;50.236;11.734;2024-02-14T05:59:45;1.10;;;0.83;;
29030;SDS011;16122;50.236;11.734;2024-02-14T06:02:10;2.53;;;1.07;;
29030;SDS011;16122;50.236;11.734;2024-02-14T06:04:36;1.00;;;0.90;;
29030;SDS011;16122;50.236;11.734;2024-02-14T06:07:02;0.70;;;0.70;;
29030;SDS011;16122;50.236;11.734;2024-02-14T06:09:30;1.27;;;1.17;;
29030;SDS011;16122;50.236;11.734;2024-02-14T06:11:56;1.00;;;0.90;;
29030;SDS011;16122;50.236;11.734;2024-02-14T06:14:22;1.23;;;1.13;;
29030;SDS011;16122;50.236;11.734;2024-02-14T06:16:48;1.20;;;1.00;;
29030;SDS011;16122;50.236;11.734;2024-02-14T06:19:14;1.00;;;0.90;;
29030;SDS011;16122;50.236;11.734;2024-02-14T06:21:40;1.00;;;0.80;;
29030;SDS011;16122;50.236;11.734;2024-02-14T06:24:06;3.07;;;0.87;;
29030;SDS011;16122;50.236;11.734;2024-02-14T06:26:31;1.17;;;0.87;;
29030;SDS011;16122;50.236;11.734;2024-02-14T06:28:58;1.53;;;0.97;;
29030;SDS011;16122;50.236;11.734;2024-02-14T06:31:24;1.10;;;0.73;;
29030;SDS011;16122;50.236;11.734;2024-02-14T06:33:50;4.57;;;1.00;;
29030;SDS011;16122;50.236;11.734;2024-02-14T06:36:15;2.07;;;1.10;;
29030;SDS011;16122;50.236;11.734;2024-02-14T06:38:41;2.03;;;0.90;;
29030;SDS011;16122;50.236;11.734;2024-02-14T06:41:07;1.57;;;0.80;;
29030;SDS011;16122;50.236;11.734;2024-02-14T06:43:33;0.70;;;0.70;;
29030;SDS011;16122;50.236;11.734;2024-02-14T06:45:58;1.40;;;0.93;;
29030;SDS011;16122;50.236;11.734;2024-02-14T06:48:24;1.50;;;1.40;;
29030;SDS011;16122;50.236;11.734;2024-02-14T06:50:50;1.87;;;0.80;;
29030;SDS011;16122;50.236;11.734;2024-02-14T06:53:17;1.37;;;0.97;;
29030;SDS011;16122;50.236;11.734;2024-02-14T06:55:43;1.87;;;0.90;;
29030;SDS011;16122;50.236;11.734;2024-02-14T06:58:08;1.60;;;1.40;;
29030;SDS011;16122;50.236;11.734;2024-02-14T07:00:34;0.80;;;0.80;;
29030;SDS011;16122;50.236;11.734;2024-02-14T07:03:00;2.83;;;0.80;;
29030;SDS011;16122;50.236;11.734;2024-02-14T07:05:29;1.57;;;0.90;;
29030;SDS011;16122;50.236;11.734;2024-02-14T07:07:57;1.57;;;1.03;;
29030;SDS011;16122;50.236;11.734;2024-02-14T07:10:23;0.80;;;0.80;;
29030;SDS011;16122;50.236;11.734;2024-02-14T07:12:49;2.10;;;1.00;;
29030;SDS011;16122;50.236;11.734;2024-02-14T07:15:15;2.60;;;0.80;;
29030;SDS011;16122;50.236;11.734;2024-02-14T07:17:42;1.10;;;0.93;;
29030;SDS011;16122;50.236;11.734;2024-02-14T07:20:08;1.03;;;0.80;;
29030;SDS011;16122;50.236;11.734;2024-02-14T07:22:37;1.30;;;0.70;;
29030;SDS011;16122;50.236;11.734;2024-02-14T07:25:03;1.20;;;1.00;;
29030;SDS011;16122;50.236;11.734;2024-02-14T07:27:31;1.63;;;1.00;;
29030;SDS011;16122;50.236;11.734;2024-02-14T07:29:57;2.03;;;1.20;;
29030;SDS011;16122;50.236;11.734;2024-02-14T07:32:23;0.80;;;0.80;;
29030;SDS011;16122;50.236;11.734;2024-02-14T07:34:48;1.03;;;0.70;;
29030;SDS011;16122;50.236;11.734;2024-02-14T07:37:14;3.37;;;1.13;;
29030;SDS011;16122;50.236;11.734;2024-02-14T07:39:43;1.07;;;0.87;;
29030;SDS011;16122;50.236;11.734;2024-02-14T07:42:09;1.30;;;0.70;;
29030;SDS011;16122;50.236;11.734;2024-02-14T07:44:35;1.23;;;0.80;;
29030;SDS011;16122;50.236;11.734;2024-02-14T07:47:01;1.67;;;0.80;;
29030;SDS011;16122;50.236;11.734;2024-02-14T07:49:27;3.43;;;0.80;;
29030;SDS011;16122;50.236;11.734;2024-02-14T07:51:53;2.50;;;1.07;;
29030;SDS011;16122;50.236;11.734;2024-02-14T07:54:18;2.13;;;1.30;;
29030;SDS011;16122;50.236;11.734;2024-02-14T07:56:44;1.33;;;0.90;;
29030;SDS011;16122;50.236;11.734;2024-02-14T07:59:10;0.80;;;0.80;;
29030;SDS011;16122;50.236;11.734;2024-02-14T08:01:36;2.10;;;1.13;;
29030;SDS011;16122;50.236;11.734;2024-02-14T08:04:02;3.03;;;1.23;;
29030;SDS011;16122;50.236;11.734;2024-02-14T08:06:29;1.00;;;0.90;;
29030;SDS011;16122;50.236;11.734;2024-02-14T08:08:55;0.97;;;0.87;;
29030;SDS011;16122;50.236;11.734;2024-02-14T08:11:26;1.73;;;0.90;;
29030;SDS011;16122;50.236;11.734;2024-02-14T08:13:52;1.10;;;0.83;;
29030;SDS011;16122;50.236;11.734;2024-02-14T08:16:18;1.17;;;0.90;;
29030;SDS011;16122;50.236;11.734;2024-02-14T08:18:44;2.20;;;0.90;;
29030;SDS011;16122;50.236;11.734;2024-02-14T08:21:10;0.93;;;0.80;;
29030;SDS011;16122;50.236;11.734;2024-02-14T08:23:37;1.00;;;0.90;;
29030;SDS011;16122;50.236;11.734;2024-02-14T08:26:04;1.87;;;0.93;;
29030;SDS011;16122;50.236;11.734;2024-02-14T08:28:38;1.80;;;1.70;;
29030;SDS011;16122;50.236;11.734;2024-02-14T08:31:11;1.20;;;1.00;;
29030;SDS011;16122;50.236;11.734;2024-02-14T08:33:40;1.17;;;0.90;;
29030;SDS011;16122;50.236;11.734;2024-02-14T08:36:06;1.37;;;1.07;;
29030;SDS011;16122;50.236;11.734;2024-02-14T08:38:33;0.70;;;0.70;;
29030;SDS011;16122;50.236;11.734;2024-02-14T08:41:00;0.93;;;0.87;;
29030;SDS011;16122;50.236;11.734;2024-02-14T08:43:28;0.77;;;0.77;;
29030;SDS011;16122;50.236;11.734;2024-02-14T08:45:54;1.03;;;0.87;;
29030;SDS011;16122;50.236;11.734;2024-02-14T08:48:20;0.80;;;0.80;;
29030;SDS011;16122;50.236;11.734;2024-02-14T08:50:46;1.00;;;0.90;;
29030;SDS011;16122;50.236;11.734;2024-02-14T08:53:12;0.97;;;0.87;;
29030;SDS011;16122;50.236;11.734;2024-02-14T08:55:41;1.50;;;1.00;;
29030;SDS011;16122;50.236;11.734;2024-02-14T08:58:07;0.83;;;0.83;;
29030;SDS011;16122;50.236;11.734;2024-02-14T09:00:36;3.20;;;0.90;;
29030;SDS011;16122;50.236;11.734;2024-02-14T09:03:04;1.60;;;1.10;;
29030;SDS011;16122;50.236;11.734;2024-02-14T09:05:30;0.80;;;0.80;;
29030;SDS011;16122;50.236;11.734;2024-02-14T09:07:56;1.23;;;0.83;;
29030;SDS011;16122;50.236;11.734;2024-02-14T09:10:22;0.80;;;0.80;;
29030;SDS011;16122;50.236;11.734;2024-02-14T09:12:48;1.10;;;0.90;;
29030;SDS011;16122;50.236;11.734;2024-02-14T09:15:14;1.43;;;1.13;;
29030;SDS011;16122;50.236;11.734;2024-02-14T09:17:40;0.70;;;0.70;;
29030;SDS011;16122;50.236;11.734;2024-02-14T09:20:07;1.10;;;1.00;;
29030;SDS011;16122;50.236;11.734;2024-02-14T09:22:37;1.10;;;1.00;;
29030;SDS011;16122;50.236;11.734;2024-02-14T09:25:03;1.70;;;0.97;;
29030;SDS011;16122;50.236;11.734;2024-02-14T09:27:30;1.43;;;1.03;;
29030;SDS011;16122;50.236;11.734;2024-02-14T09:29:56;0.73;;;0.73;;
29030;SDS011;16122;50.236;11.734;2024-02-14T09:32:22;1.27;;;0.90;;
29030;SDS011;16122;50.236;11.734;2024-02-14T09:34:48;1.10;;;0.90;;
29030;SDS011;16122;50.236;11.734;2024-02-14T09:37:14;0.90;;;0.77;;
29030;SDS011;16122;50.236;11.734;2024-02-14T09:39:39;0.83;;;0.80;;
29030;SDS011;16122;50.236;11.734;2024-02-14T09:42:09;2.23;;;1.20;;
29030;SDS011;16122;50.236;11.734;2024-02-14T09:44:38;1.17;;;1.07;;
29030;SDS011;16122;50.236;11.734;2024-02-14T09:47:07;1.27;;;0.90;;
29030;SDS011;16122;50.236;11.734;2024-02-14T09:49:34;1.03;;;0.93;;
29030;SDS011;16122;50.236;11.734;2024-02-14T09:52:02;0.90;;;0.90;;
29030;SDS011;16122;50.236;11.734;2024-02-14T09:54:29;2.10;;;1.17;;
29030;SDS011;16122;50.236;11.734;2024-02-14T09:56:56;1.77;;;1.20;;
29030;SDS011;16122;50.236;11.734;2024-02-14T09:59:23;1.23;;;1.10;;
29030;SDS011;16122;50.236;11.734;2024-02-14T10:01:49;1.50;;;1.40;;
29030;SDS011;16122;50.236;11.734;2024-02-14T10:04:16;2.90;;;2.37;;
29030;SDS011;16122;50.236;11.734;2024-02-14T10:06:44;6.50;;;3.67;;
29030;SDS011;16122;50.236;11.734;2024-02-14T10:09:10;4.90;;;4.07;;
29030;SDS011;16122;50.236;11.734;2024-02-14T10:11:37;3.50;;;3.20;;
29030;SDS011;16122;50.236;11.734;2024-02-14T10:14:05;3.87;;;3.57;;
29030;SDS011;16122;50.236;11.734;2024-02-14T10:16:34;2.83;;;2.63;;
29030;SDS011;16122;50.236;11.734;2024-02-14T10:19:00;3.40;;;2.57;;
29030;SDS011;16122;50.236;11.734;2024-02-14T10:21:27;3.13;;;2.43;;
29030;SDS011;16122;50.236;11.734;2024-02-14T10:23:53;2.70;;;2.10;;
29030;SDS011;16122;50.236;11.734;2024-02-14T10:26:23;3.33;;;2.57;;
29030;SDS011;16122;50.236;11.734;2024-02-14T10:28:48;2.73;;;2.10;;
29030;SDS011;16122;50.236;11.734;2024-02-14T10:31:16;2.37;;;2.17;;
29030;SDS011;16122;50.236;11.734;2024-02-14T10:33:42;2.50;;;2.30;;
29030;SDS011;16122;50.236;11.734;2024-02-14T10:36:08;4.83;;;2.00;;
29030;SDS011;16122;50.236;11.734;2024-02-14T10:38:37;2.50;;;2.20;;
29030;SDS011;16122;50.236;11.734;2024-02-14T10:41:04;3.87;;;1.80;;
29030;SDS011;16122;50.236;11.734;2024-02-14T10:43:30;2.10;;;1.70;;
29030;SDS011;16122;50.236;11.734;2024-02-14T10:45:56;2.47;;;2.20;;
29030;SDS011;16122;50.236;11.734;2024-02-14T10:48:31;2.30;;;2.03;;
29030;SDS011;16122;50.236;11.734;2024-02-14T10:51:04;1.73;;;1.63;;
29030;SDS011;16122;50.236;11.734;2024-02-14T10:53:32;3.23;;;2.13;;
29030;SDS011;16122;50.236;11.734;2024-02-14T10:56:02;2.40;;;1.80;;
29030;SDS011;16122;50.236;11.734;2024-02-14T10:58:29;2.10;;;2.00;;
29030;SDS011;16122;50.236;11.734;2024-02-14T11:00:56;1.93;;;1.77;;
29030;SDS011;16122;50.236;11.734;2024-02-14T11:03:22;2.80;;;2.00;;
29030;SDS011;16122;50.236;11.734;2024-02-14T11:05:49;2.50;;;2.27;;
29030;SDS011;16122;50.236;11.734;2024-02-14T11:08:18;3.30;;;2.30;;
29030;SDS011;16122;50.236;11.734;2024-02-14T11:10:52;2.70;;;2.00;;
29030;SDS011;16122;50.236;11.734;2024-02-14T11:13:27;2.50;;;2.30;;
29030;SDS011;16122;50.236;11.734;2024-02-14T11:15:57;2.20;;;2.00;;
29030;SDS011;16122;50.236;11.734;2024-02-14T11:18:25;2.87;;;2.50;;
29030;SDS011;16122;50.236;11.734;2024-02-14T11:21:03;2.17;;;2.07;;
29030;SDS011;16122;50.236;11.734;2024-02-14T11:23:30;3.70;;;2.20;;
29030;SDS011;16122;50.236;11.734;2024-02-14T11:26:00;2.20;;;2.00;;
29030;SDS011;16122;50.236;11.734;2024-02-14T11:28:30;2.73;;;2.23;;
29030;SDS011;16122;50.236;11.734;2024-02-14T11:31:02;2.73;;;1.80;;
29030;SDS011;16122;50.236;11.734;2024-02-14T11:33:29;2.00;;;1.80;;
29030;SDS011;16122;50.236;11.734;2024-02-14T11:35:55;2.50;;;2.30;;
29030;SDS011;16122;50.236;11.734;2024-02-14T11:38:22;1.80;;;1.70;;
29030;SDS011;16122;50.236;11.734;2024-02-14T11:40:51;4.57;;;2.10;;
29030;SDS011;16122;50.236;11.734;2024-02-14T11:43:22;2.47;;;2.27;;
29030;SDS011;16122;50.236;11.734;2024-02-14T11:45:48;2.10;;;1.67;;
29030;SDS011;16122;50.236;11.734;2024-02-14T11:48:23;2.27;;;2.03;;
29030;SDS011;16122;50.236;11.734;2024-02-14T11:50:49;4.23;;;1.80;;
29030;SDS011;16122;50.236;11.734;2024-02-14T11:53:17;3.20;;;1.93;;
29030;SDS011;16122;50.236;11.734;2024-02-14T11:55:44;2.30;;;1.70;;
29030;SDS011;16122;50.236;11.734;2024-02-14T11:58:12;2.93;;;1.90;;
29030;SDS011;16122;50.236;11.734;2024-02-14T12:00:39;1.97;;;1.70;;
29030;SDS011;16122;50.236;11.734;2024-02-14T12:03:07;1.67;;;1.57;;
29030;SDS011;16122;50.236;11.734;2024-02-14T12:05:36;2.30;;;1.60;;
29030;SDS011;16122;50.236;11.734;2024-02-14T12:08:03;2.20;;;2.10;;
29030;SDS011;16122;50.236;11.734;2024-02-14T12:10:31;1.80;;;1.37;;
29030;SDS011;16122;50.236;11.734;2024-02-14T12:12:58;1.50;;;1.40;;
29030;SDS011;16122;50.236;11.734;2024-02-14T12:15:29;1.50;;;1.40;;
29030;SDS011;16122;50.236;11.734;2024-02-14T12:17:55;4.03;;;1.60;;
29030;SDS011;16122;50.236;11.734;2024-02-14T12:20:22;1.40;;;1.30;;
29030;SDS011;16122;50.236;11.734;2024-02-14T12:22:51;3.93;;;1.77;;
29030;SDS011;16122;50.236;11.734;2024-02-14T12:25:17;4.33;;;2.00;;
29030;SDS011;16122;50.236;11.734;2024-02-14T12:27:49;2.30;;;1.70;;
29030;SDS011;16122;50.236;11.734;2024-02-14T12:30:16;1.70;;;1.60;;
29030;SDS011;16122;50.236;11.734;2024-02-14T12:32:43;4.93;;;1.60;;
29030;SDS011;16122;50.236;11.734;2024-02-14T12:35:10;2.10;;;1.73;;
29030;SDS011;16122;50.236;11.734;2024-02-14T12:37:36;2.50;;;1.50;;
29030;SDS011;16122;50.236;11.734;2024-02-14T12:40:03;2.03;;;1.80;;
29030;SDS011;16122;50.236;11.734;2024-02-14T12:42:31;4.70;;;1.50;;
29030;SDS011;16122;50.236;11.734;2024-02-14T12:44:57;2.20;;;1.47;;
29030;SDS011;16122;50.236;11.734;2024-02-14T12:47:23;2.00;;;1.60;;
29030;SDS011;16122;50.236;11.734;2024-02-14T12:49:50;2.40;;;1.67;;
29030;SDS011;16122;50.236;11.734;2024-02-14T12:52:16;2.67;;;1.40;;
29030;SDS011;16122;50.236;11.734;2024-02-14T12:54:43;4.87;;;1.50;;
29030;SDS011;16122;50.236;11.734;2024-02-14T12:57:14;1.73;;;1.50;;
29030;SDS011;16122;50.236;11.734;2024-02-14T12:59:39;6.20;;;1.70;;
29030;SDS011;16122;50.236;11.734;2024-02-14T13:02:06;2.60;;;1.73;;
29030;SDS011;16122;50.236;11.734;2024-02-14T13:04:32;1.73;;;1.43;;
29030;SDS011;16122;50.236;11.734;2024-02-14T13:06:58;2.70;;;1.77;;
29030;SDS011;16122;50.236;11.734;2024-02-14T13:09:24;2.07;;;1.87;;
29030;SDS011;16122;50.236;11.734;2024-02-14T13:11:51;1.50;;;1.40;;
29030;SDS011;16122;50.236;11.734;2024-02-14T13:14:17;2.77;;;1.63;;
29030;SDS011;16122;50.236;11.734;2024-02-14T13:16:43;1.80;;;1.70;;
29030;SDS011;16122;50.236;11.734;2024-02-14T13:19:09;1.70;;;1.60;;
29030;SDS011;16122;50.236;11.734;2024-02-14T13:21:34;2.20;;;1.73;;
29030;SDS011;16122;50.236;11.734;2024-02-14T13:24:01;3.13;;;1.50;;
29030;SDS011;16122;50.236;11.734;2024-02-14T13:26:27;1.93;;;1.50;;
29030;SDS011;16122;50.236;11.734;2024-02-14T13:28:53;2.33;;;1.40;;
29030;SDS011;16122;50.236;11.734;2024-02-14T13:31:20;1.40;;;1.30;;
29030;SDS011;16122;50.236;11.734;2024-02-14T13:33:46;2.20;;;1.53;;
29030;SDS011;16122;50.236;11.734;2024-02-14T13:36:12;3.43;;;1.63;;
29030;SDS011;16122;50.236;11.734;2024-02-14T13:38:40;3.33;;;1.60;;
29030;SDS011;16122;50.236;11.734;2024-02-14T13:41:06;3.77;;;1.60;;
29030;SDS011;16122;50.236;11.734;2024-02-14T13:43:32;1.67;;;1.40;;
29030;SDS011;16122;50.236;11.734;2024-02-14T13:45:58;2.20;;;1.20;;
29030;SDS011;16122;50.236;11.734;2024-02-14T13:48:24;2.20;;;1.40;;
29030;SDS011;16122;50.236;11.734;2024-02-14T13:50:50;2.80;;;1.53;;
29030;SDS011;16122;50.236;11.734;2024-02-14T13:53:17;2.80;;;1.27;;
29030;SDS011;16122;50.236;11.734;2024-02-14T13:55:42;4.70;;;1.47;;
29030;SDS011;16122;50.236;11.734;2024-02-14T13:58:08;3.43;;;1.70;;
29030;SDS011;16122;50.236;11.734;2024-02-14T14:00:39;2.50;;;1.57;;
29030;SDS011;16122;50.236;11.734;2024-02-14T14:03:05;1.90;;;1.50;;
29030;SDS011;16122;50.236;11.734;2024-02-14T14:05:30;2.20;;;1.60;;
29030;SDS011;16122;50.236;11.734;2024-02-14T14:07:56;3.93;;;1.60;;
29030;SDS011;16122;50.236;11.734;2024-02-14T14:10:24;1.70;;;1.60;;
29030;SDS011;16122;50.236;11.734;2024-02-14T14:12:51;3.63;;;1.77;;
29030;SDS011;16122;50.236;11.734;2024-02-14T14:15:17;1.30;;;1.20;;
29030;SDS011;16122;50.236;11.734;2024-02-14T14:17:42;5.00;;;1.63;;
29030;SDS011;16122;50.236;11.734;2024-02-14T14:20:08;1.87;;;1.50;;
29030;SDS011;16122;50.236;11.734;2024-02-14T14:22:35;1.80;;;1.70;;
29030;SDS011;16122;50.236;11.734;2024-02-14T14:25:03;2.07;;;1.50;;
29030;SDS011;16122;50.236;11.734;2024-02-14T14:27:30;2.57;;;1.50;;
29030;SDS011;16122;50.236;11.734;2024-02-14T14:29:56;1.60;;;1.30;;